Time;durP1;ratioP1;P1;durP2;ratioP2;P2;SDS_P1;SDS_P2;PMS_P1;PMS_P2;Temp;Humidity;BMP_temperature;BMP_pressure;BME280_temperature;BME280_humidity;BME280_pressure;Samples;Min_cycle;Max_cycle;Signal;HPM_P1;HPM_P2
2023/08/21 00:00:31;;;;;;;11.25;4.35;;;;;;;-146.25;100.00;52096.50;2071465;28;20042;-63
2023/08/21 00:01:33;;;;;;;11.15;3.80;;;;;;;-146.25;100.00;52112.72;2072329;28;42844;-64
2023/08/21 00:02:35;;;;;;;10.68;4.43;;;;;;;-146.25;100.00;52126.91;2072330;28;33826;-63
2023/08/21 00:03:37;;;;;;;10.25;4.20;;;;;;;-146.25;100.00;52139.09;2072523;28;29948;-63
2023/08/21 00:04:42;;;;;;;10.35;4.68;;;;;;;-146.25;100.00;52104.63;2071688;28;39660;-64
2023/08/21 00:05:45;;;;;;;14.60;5.03;;;;;;;-146.25;100.00;52120.84;2062710;28;38349;-62
2023/08/21 00:06:47;;;;;;;9.45;4.38;;;;;;;-146.25;100.00;52153.28;2063718;28;32851;-63
2023/08/21 00:07:50;;;;;;;14.43;5.07;;;;;;;-146.25;100.00;52116.78;2071960;28;36110;-63
2023/08/21 00:08:57;;;;;;;13.50;6.03;;;;;;;-146.25;100.00;52118.81;2071701;28;36572;-65
2023/08/21 00:09:58;;;;;;;10.50;4.85;;;;;;;-146.25;100.00;52108.66;2071778;28;34444;-63
2023/08/21 00:11:00;;;;;;;11.50;4.82;;;;;;;-146.25;100.00;52124.91;2071874;28;35729;-63
2023/08/21 00:12:02;;;;;;;13.60;5.30;;;;;;;-146.25;100.00;52110.69;2071875;28;33284;-63
2023/08/21 00:13:05;;;;;;;9.35;4.35;;;;;;;-146.25;100.00;52088.41;2071822;28;39299;-63
2023/08/21 00:14:09;;;;;;;11.75;4.75;;;;;;;-146.25;100.00;52108.66;2071793;28;35122;-62
2023/08/21 00:15:11;;;;;;;12.52;5.80;;;;;;;-146.25;100.00;52143.13;2071056;28;32459;-63
2023/08/21 00:16:13;;;;;;;10.60;5.78;;;;;;;-146.25;100.00;52094.47;2071840;28;38695;-63
2023/08/21 00:17:15;;;;;;;12.30;5.57;;;;;;;-146.25;100.00;52082.31;2072658;28;20047;-63
2023/08/21 00:18:17;;;;;;;12.95;6.03;;;;;;;-146.25;100.00;52096.50;2071787;28;37906;-65
2023/08/21 00:19:18;;;;;;;9.60;5.18;;;;;;;-146.25;100.00;52135.03;2071497;28;34069;-63
2023/08/21 00:20:20;;;;;;;8.18;4.80;;;;;;;-146.25;100.00;52096.50;2071845;28;29069;-63
2023/08/21 00:21:24;;;;;;;15.82;5.40;;;;;;;-146.25;100.00;52106.66;2070895;28;37609;-63
2023/08/21 00:22:26;;;;;;;13.38;5.75;;;;;;;-146.25;100.00;52149.22;2072069;28;31049;-64
2023/08/21 00:23:30;;;;;;;13.20;6.05;;;;;;;-146.25;100.00;52108.66;2071780;28;34954;-63
2023/08/21 00:24:32;;;;;;;14.93;6.32;;;;;;;-146.25;100.00;52137.06;2071902;28;36887;-63
2023/08/21 00:25:34;;;;;;;13.77;6.68;;;;;;;-146.25;100.00;52110.69;2073028;28;20070;-63
2023/08/21 00:26:36;;;;;;;13.18;5.88;;;;;;;-146.25;100.00;52106.66;2072002;28;36468;-63
2023/08/21 00:27:37;;;;;;;17.42;7.05;;;;;;;-146.25;100.00;52155.31;2071961;28;31068;-63
2023/08/21 00:28:39;;;;;;;16.75;7.80;;;;;;;-146.25;100.00;52098.53;2079721;28;28434;-65
2023/08/21 00:29:41;;;;;;;13.82;7.82;;;;;;;-146.25;100.00;52092.44;2079473;28;27758;-63
2023/08/21 00:30:42;;;;;;;18.40;11.93;;;;;;;-146.25;100.00;52128.94;2071911;28;26314;-62
2023/08/21 00:31:44;;;;;;;21.48;11.10;;;;;;;-146.25;100.00;52133.00;2071469;28;20042;-63
2023/08/21 00:32:46;;;;;;;19.17;9.65;;;;;;;-146.25;100.00;52092.44;2073791;28;30829;-63
2023/08/21 00:33:48;;;;;;;18.85;9.30;;;;;;;-146.25;100.00;52098.53;2072043;28;29485;-63
2023/08/21 00:34:52;;;;;;;13.68;8.48;;;;;;;-146.25;100.00;52076.22;2072237;28;32075;-64
2023/08/21 00:35:54;;;;;;;14.35;7.85;;;;;;;-146.25;100.00;52130.97;2071829;28;20976;-63
2023/08/21 00:36:55;;;;;;;14.25;8.15;;;;;;;-146.25;100.00;52120.84;2079842;28;29621;-63
2023/08/21 00:37:57;;;;;;;12.82;7.55;;;;;;;-146.25;100.00;52106.66;2078993;28;34818;-63
2023/08/21 00:38:59;;;;;;;14.52;8.55;;;;;;;-146.25;100.00;52112.72;2071673;28;21313;-63
2023/08/21 00:40:00;;;;;;;18.38;9.23;;;;;;;-146.25;100.00;52143.13;2079480;28;25442;-64
2023/08/21 00:41:02;;;;;;;19.23;9.63;;;;;;;-146.25;100.00;52163.41;2079451;28;29585;-64
2023/08/21 00:42:07;;;;;;;25.70;11.43;;;;;;;-146.25;100.00;52114.75;2072105;28;20974;-63
2023/08/21 00:43:09;;;;;;;21.98;11.30;;;;;;;-146.25;100.00;52092.44;2072458;28;25672;-63
2023/08/21 00:44:10;;;;;;;18.38;10.27;;;;;;;-146.25;100.00;52130.97;2079238;28;33878;-64
2023/08/21 00:45:12;;;;;;;17.50;10.68;;;;;;;-146.25;100.00;52126.91;2079264;28;32195;-64
2023/08/21 00:46:15;;;;;;;17.50;10.77;;;;;;;-146.25;100.00;52141.13;2079669;28;25933;-64
2023/08/21 00:47:19;;;;;;;19.70;12.10;;;;;;;-146.25;100.00;52120.84;2072112;28;37306;-63
2023/08/21 00:48:22;;;;;;;23.25;13.38;;;;;;;-146.25;100.00;52141.13;2071409;28;20050;-64
2023/08/21 00:49:23;;;;;;;21.48;12.50;;;;;;;-146.25;100.00;52088.41;2071462;28;27558;-63
2023/08/21 00:50:25;;;;;;;24.40;12.30;;;;;;;-146.25;100.00;52145.16;2070937;28;36952;-64
2023/08/21 00:51:27;;;;;;;20.58;11.57;;;;;;;-146.25;100.00;52106.66;2072631;28;22009;-64
2023/08/21 00:52:30;;;;;;;21.10;11.75;;;;;;;-146.25;100.00;52104.63;2071544;28;20091;-64
2023/08/21 00:53:32;;;;;;;20.90;11.98;;;;;;;-146.25;100.00;52104.63;2071268;28;30983;-64
2023/08/21 00:54:34;;;;;;;18.85;11.15;;;;;;;-146.25;100.00;52100.56;2071098;28;26583;-64
2023/08/21 00:55:37;;;;;;;20.05;11.60;;;;;;;-146.25;100.00;52112.72;2072052;28;31683;-64
2023/08/21 00:56:39;;;;;;;16.40;10.10;;;;;;;-146.25;100.00;52120.84;2078527;28;28503;-64
2023/08/21 00:57:41;;;;;;;18.00;11.82;;;;;;;-146.25;100.00;52088.41;2079586;28;26129;-63
2023/08/21 00:58:43;;;;;;;16.15;10.05;;;;;;;-146.25;100.00;52155.31;2071127;28;26556;-63
2023/08/21 00:59:45;;;;;;;17.23;9.13;;;;;;;-146.25;100.00;52122.88;2072152;28;20093;-64
2023/08/21 01:00:50;;;;;;;14.25;9.30;;;;;;;-146.25;100.00;52110.69;2070709;28;34250;-64
2023/08/21 01:01:51;;;;;;;14.80;9.30;;;;;;;-146.25;100.00;52100.56;2071854;28;20991;-63
2023/08/21 01:02:58;;;;;;;23.42;11.65;;;;;;;-146.25;100.00;52120.84;2072062;28;25252;-64
2023/08/21 01:04:00;;;;;;;19.20;11.63;;;;;;;-146.25;100.00;52090.44;2071706;28;20038;-64
2023/08/21 01:05:02;;;;;;;22.77;11.73;;;;;;;-146.25;100.00;52114.75;2071518;28;20046;-64
2023/08/21 01:06:09;;;;;;;25.55;13.63;;;;;;;-146.25;100.00;52155.31;2071879;28;33781;-64
2023/08/21 01:07:15;;;;;;;24.75;12.60;;;;;;;-146.25;100.00;52108.66;2070756;28;35013;-64
2023/08/21 01:08:35;;;;;;;16.63;12.43;;;;;;;-146.25;100.00;52135.03;2071354;28;31890;-63
2023/08/21 01:09:48;;;;;;;28.63;15.07;;;;;;;-146.25;100.00;52126.91;2071835;28;32197;-63
2023/08/21 01:10:58;;;;;;;15.48;10.27;;;;;;;-146.25;100.00;52124.91;2072807;28;20081;-64
2023/08/21 01:12:34;;;;;;;17.73;10.20;;;;;;;-146.25;100.00;52110.69;2077614;28;32238;-63
2023/08/21 01:14:19;;;;;;;18.13;10.02;;;;;;;-146.25;100.00;52104.63;2074247;28;28533;-63
2023/08/21 01:15:22;;;;;;;19.05;11.13;;;;;;;-146.25;100.00;52094.47;2070634;28;34772;-63
2023/08/21 01:16:29;;;;;;;16.23;10.18;;;;;;;-146.25;100.00;52157.34;2071135;28;32821;-63
2023/08/21 01:17:34;;;;;;;14.60;9.27;;;;;;;-146.25;100.00;52106.66;2071794;28;32474;-63
2023/08/21 01:18:36;;;;;;;15.63;10.27;;;;;;;-146.25;100.00;52141.13;2078238;28;29703;-63
2023/08/21 01:19:47;;;;;;;21.58;12.93;;;;;;;-146.25;100.00;52108.66;2071060;28;25362;-64
2023/08/21 01:20:51;;;;;;;18.60;11.38;;;;;;;-146.25;100.00;52139.09;2073123;28;24110;-63
2023/08/21 01:21:55;;;;;;;25.15;14.13;;;;;;;-146.25;100.00;52110.69;2071224;28;20858;-64
2023/08/21 01:23:04;;;;;;;21.20;13.20;;;;;;;-146.25;100.00;52165.44;2071563;28;21348;-64
2023/08/21 01:24:06;;;;;;;23.95;12.95;;;;;;;-146.25;100.00;52133.00;2064294;28;20219;-63
2023/08/21 01:25:11;;;;;;;23.13;13.45;;;;;;;-146.25;100.00;52116.78;2071555;28;20160;-64
2023/08/21 01:26:15;;;;;;;17.40;11.38;;;;;;;-146.25;100.00;52135.03;2070655;28;25721;-63
2023/08/21 01:27:21;;;;;;;16.42;11.57;;;;;;;-146.25;100.00;52163.41;2071251;28;21773;-64
2023/08/21 01:28:23;;;;;;;19.08;12.15;;;;;;;-146.25;100.00;52126.91;2071373;28;20058;-63
2023/08/21 01:29:26;;;;;;;20.38;14.02;;;;;;;-146.25;100.00;52124.91;2071566;28;20132;-64
2023/08/21 01:30:33;;;;;;;22.98;15.18;;;;;;;-146.25;100.00;52149.22;2071457;28;20035;-63
2023/08/21 01:31:39;;;;;;;21.40;14.10;;;;;;;-146.25;100.00;52120.84;2070532;28;29000;-64
2023/08/21 01:33:07;;;;;;;22.17;11.77;;;;;;;-146.25;100.00;52151.25;2070533;28;25062;-64
2023/08/21 01:34:14;;;;;;;20.83;14.65;;;;;;;-146.25;100.00;52149.22;2070868;28;20827;-63
2023/08/21 01:35:20;;;;;;;28.58;16.95;;;;;;;-146.25;100.00;52155.31;2074191;28;20042;-63
2023/08/21 01:36:25;;;;;;;14.40;12.10;;;;;;;-146.25;100.00;52118.81;2070723;28;28999;-62
2023/08/21 01:37:28;;;;;;;19.33;12.80;;;;;;;-146.25;100.00;52122.88;2055365;28;20889;-63
2023/08/21 01:38:33;;;;;;;27.13;15.63;;;;;;;-146.25;100.00;52145.16;2055716;28;31007;-64
2023/08/21 01:39:37;;;;;;;21.65;12.65;;;;;;;-146.25;100.00;52149.22;2071409;28;31148;-63
2023/08/21 01:40:43;;;;;;;19.77;13.38;;;;;;;-146.25;100.00;52118.81;2079616;28;20046;-65
2023/08/21 01:41:45;;;;;;;21.52;13.40;;;;;;;-146.25;100.00;52133.00;2079202;28;20038;-64
2023/08/21 01:42:49;;;;;;;22.05;14.63;;;;;;;-146.25;100.00;52155.31;2071668;28;32518;-64
2023/08/21 01:43:51;;;;;;;27.58;17.17;;;;;;;-146.25;100.00;52118.81;2079142;28;25996;-64
2023/08/21 01:44:52;;;;;;;29.40;18.88;;;;;;;-146.25;100.00;52135.03;2077918;28;33806;-64
2023/08/21 01:45:55;;;;;;;19.90;14.77;;;;;;;-146.25;100.00;52100.56;2071060;28;32426;-64
2023/08/21 01:46:56;;;;;;;22.20;14.52;;;;;;;-146.25;100.00;52147.19;2078824;28;31364;-64
2023/08/21 01:47:58;;;;;;;28.08;16.50;;;;;;;-146.25;100.00;52120.84;2070916;28;28708;-63
2023/08/21 01:49:02;;;;;;;25.40;15.80;;;;;;;-146.25;100.00;52161.38;2071238;28;24150;-63
2023/08/21 01:50:06;;;;;;;16.75;11.07;;;;;;;-146.25;100.00;52124.91;2071407;28;20177;-63
2023/08/21 01:51:08;;;;;;;18.85;12.20;;;;;;;-146.25;100.00;52157.34;2071088;28;20085;-63
2023/08/21 01:52:10;;;;;;;18.35;13.00;;;;;;;-146.25;100.00;52155.31;2079055;28;20053;-63
2023/08/21 01:53:11;;;;;;;18.83;11.75;;;;;;;-146.25;100.00;52149.22;2070882;28;29683;-63
2023/08/21 01:54:13;;;;;;;17.70;11.45;;;;;;;-146.25;100.00;52114.75;2071609;28;20038;-63
2023/08/21 01:55:19;;;;;;;17.98;11.52;;;;;;;-146.25;100.00;52124.91;2102016;23;32998;-68
2023/08/21 01:56:24;;;;;;;27.55;14.95;;;;;;;-146.25;100.00;52128.94;2097057;28;20029;-68
2023/08/21 01:57:30;;;;;;;21.67;15.10;;;;;;;-146.25;100.00;52124.91;2087692;28;20915;-68
2023/08/21 01:58:32;;;;;;;20.70;13.63;;;;;;;-146.25;100.00;52126.91;2079839;28;20053;-68
2023/08/21 01:59:34;;;;;;;17.17;11.70;;;;;;;-146.25;100.00;52165.44;2078770;28;20065;-68
2023/08/21 02:00:38;;;;;;;20.02;12.75;;;;;;;-146.25;100.00;52153.28;2082465;28;26415;-68
2023/08/21 02:01:40;;;;;;;23.55;14.25;;;;;;;-146.25;100.00;52143.13;2079755;28;26895;-68
2023/08/21 02:02:42;;;;;;;18.10;12.13;;;;;;;-146.25;100.00;52102.59;2079239;28;25697;-68
2023/08/21 02:03:45;;;;;;;24.30;13.80;;;;;;;-146.25;100.00;52128.94;2070734;28;30796;-68
2023/08/21 02:04:47;;;;;;;21.40;12.65;;;;;;;-146.25;100.00;52157.34;2071570;28;20189;-68
2023/08/21 02:05:49;;;;;;;30.10;14.35;;;;;;;-146.25;100.00;52124.91;2079256;28;20073;-68
2023/08/21 02:06:53;;;;;;;18.60;12.63;;;;;;;-146.25;100.00;52153.28;2079146;28;29118;-68
2023/08/21 02:07:56;;;;;;;17.35;11.95;;;;;;;-146.25;100.00;52137.06;2072008;28;20043;-68
2023/08/21 02:09:00;;;;;;;22.55;15.25;;;;;;;-146.25;100.00;52122.88;2079432;28;20160;-68
2023/08/21 02:10:02;;;;;;;29.15;16.65;;;;;;;-146.25;100.00;52137.06;2083731;28;20045;-68
2023/08/21 02:11:04;;;;;;;24.05;14.00;;;;;;;-146.25;100.00;52100.56;2079540;28;20050;-68
2023/08/21 02:12:06;;;;;;;23.00;14.00;;;;;;;-146.25;100.00;52139.09;2087355;28;27860;-68
2023/08/21 02:13:07;;;;;;;20.77;14.13;;;;;;;-146.25;100.00;52130.97;2087832;28;23422;-68
2023/08/21 02:14:10;;;;;;;21.35;13.20;;;;;;;-146.25;100.00;52124.91;2095225;28;20874;-68
2023/08/21 02:15:11;;;;;;;23.40;15.27;;;;;;;-146.25;100.00;52171.53;2087524;28;20168;-68
2023/08/21 02:16:15;;;;;;;28.10;15.20;;;;;;;-146.25;100.00;52137.06;2079089;28;20049;-68
2023/08/21 02:17:19;;;;;;;21.42;14.60;;;;;;;-146.25;100.00;52145.16;2087739;28;20049;-68
2023/08/21 02:18:21;;;;;;;24.70;15.20;;;;;;;-146.25;100.00;52133.00;2095364;28;23370;-69
2023/08/21 02:19:22;;;;;;;24.40;15.95;;;;;;;-146.25;100.00;52128.94;2087243;28;23917;-69
2023/08/21 02:20:24;;;;;;;25.90;16.35;;;;;;;-146.25;100.00;52124.91;2087395;28;28958;-68
2023/08/21 02:21:26;;;;;;;29.27;16.35;;;;;;;-146.25;100.00;52120.84;2088020;28;27200;-68
2023/08/21 02:22:28;;;;;;;28.98;19.27;;;;;;;-146.25;100.00;52149.22;2088246;28;20252;-69
2023/08/21 02:23:29;;;;;;;24.67;15.90;;;;;;;-146.25;100.00;52137.06;2088717;28;21162;-68
2023/08/21 02:24:31;;;;;;;24.35;15.50;;;;;;;-146.25;100.00;52157.34;2088828;28;23370;-68
2023/08/21 02:25:33;;;;;;;20.70;14.93;;;;;;;-146.25;100.00;52137.06;2088266;28;27933;-68
2023/08/21 02:26:35;;;;;;;21.20;14.77;;;;;;;-146.25;100.00;52173.56;2100093;28;25925;-68
2023/08/21 02:27:37;;;;;;;23.73;14.52;;;;;;;-146.25;100.00;52147.19;2089013;28;20041;-69
2023/08/21 02:28:39;;;;;;;18.70;14.43;;;;;;;-146.25;100.00;52149.22;2089106;28;22165;-68
2023/08/21 02:29:41;;;;;;;27.38;16.60;;;;;;;-146.25;100.00;52106.66;2089555;28;29436;-69
2023/08/21 02:30:44;;;;;;;25.25;17.60;;;;;;;-146.25;100.00;52112.72;2089448;28;27006;-68
2023/08/21 02:31:49;;;;;;;20.40;15.23;;;;;;;-146.25;100.00;52120.84;2089082;28;32426;-67
2023/08/21 02:32:54;;;;;;;26.38;16.50;;;;;;;-146.25;100.00;52128.94;2088510;28;31940;-69
2023/08/21 02:33:56;;;;;;;25.33;14.48;;;;;;;-146.25;100.00;52133.00;2081040;28;31305;-68
2023/08/21 02:34:57;;;;;;;23.13;15.20;;;;;;;-146.25;100.00;52128.94;2080835;28;20115;-70
2023/08/21 02:36:00;;;;;;;27.35;14.55;;;;;;;-146.25;100.00;52128.94;2089006;28;20046;-68
2023/08/21 02:37:04;;;;;;;25.00;14.82;;;;;;;-146.25;100.00;52137.06;2089438;28;20144;-68
2023/08/21 02:38:06;;;;;;;23.67;15.43;;;;;;;-146.25;100.00;52147.19;2088751;28;25302;-69
2023/08/21 02:39:13;;;;;;;19.45;12.15;;;;;;;-146.25;100.00;52169.50;2088621;28;20873;-68
2023/08/21 02:40:15;;;;;;;20.00;13.00;;;;;;;-146.25;100.00;52143.13;2088446;28;24151;-68
2023/08/21 02:41:19;;;;;;;23.33;13.48;;;;;;;-146.25;100.00;52189.78;2097418;28;20897;-68
2023/08/21 02:42:22;;;;;;;25.25;15.43;;;;;;;-146.25;100.00;52114.75;2088654;28;32589;-69
2023/08/21 02:43:23;;;;;;;22.83;12.45;;;;;;;-146.25;100.00;52151.25;2088212;28;23839;-68
2023/08/21 02:44:26;;;;;;;23.73;15.35;;;;;;;-146.25;100.00;52116.78;2089170;28;28926;-68
2023/08/21 02:45:31;;;;;;;18.98;14.13;;;;;;;-146.25;100.00;52157.34;2087432;28;27710;-68
2023/08/21 02:46:36;;;;;;;21.40;13.25;;;;;;;-146.25;100.00;52157.34;2088206;28;29272;-68
2023/08/21 02:47:41;;;;;;;21.98;13.95;;;;;;;-146.25;100.00;52118.81;2089737;28;20950;-68
2023/08/21 02:48:43;;;;;;;26.20;15.07;;;;;;;-146.25;100.00;52137.06;2088246;28;26081;-68
2023/08/21 02:49:44;;;;;;;28.13;14.05;;;;;;;-146.25;100.00;52143.13;2088521;28;25673;-69
2023/08/21 02:50:46;;;;;;;26.13;14.95;;;;;;;-146.25;100.00;52130.97;2088884;28;20044;-69
2023/08/21 02:51:50;;;;;;;24.35;14.02;;;;;;;-146.25;100.00;52124.91;2088833;28;20049;-68
2023/08/21 02:52:52;;;;;;;25.88;14.50;;;;;;;-146.25;100.00;52161.38;2089333;28;25323;-69
2023/08/21 02:53:54;;;;;;;29.30;16.05;;;;;;;-146.25;100.00;52173.56;2089106;28;31170;-66
2023/08/21 02:54:55;;;;;;;29.67;17.38;;;;;;;-146.25;100.00;52112.72;2089522;28;29526;-68
2023/08/21 02:55:58;;;;;;;24.85;14.43;;;;;;;-146.25;100.00;52149.22;2097330;28;20944;-68
2023/08/21 02:57:00;;;;;;;24.60;15.15;;;;;;;-146.25;100.00;52122.88;2095795;28;20156;-68
2023/08/21 02:58:02;;;;;;;26.83;15.73;;;;;;;-146.25;100.00;52167.47;2088712;28;20038;-70
2023/08/21 02:59:04;;;;;;;26.90;15.77;;;;;;;-146.25;100.00;52161.38;2088034;28;32638;-70
2023/08/21 03:00:08;;;;;;;24.80;15.55;;;;;;;-146.25;100.00;52189.78;2089364;28;28443;-69
2023/08/21 03:01:10;;;;;;;26.35;15.43;;;;;;;-146.25;100.00;52157.34;2096467;28;25670;-68
2023/08/21 03:02:14;;;;;;;29.38;17.02;;;;;;;-146.25;100.00;52120.84;2096453;28;27976;-69
2023/08/21 03:03:18;;;;;;;33.00;17.67;;;;;;;-146.25;100.00;52161.38;2089571;28;20053;-68
2023/08/21 03:04:20;;;;;;;27.23;16.65;;;;;;;-146.25;100.00;52126.91;2089156;28;31188;-68
2023/08/21 03:05:22;;;;;;;30.58;16.52;;;;;;;-146.25;100.00;52133.00;2088968;28;30275;-68
2023/08/21 03:06:24;;;;;;;27.70;15.45;;;;;;;-146.25;100.00;52106.66;2089296;28;20877;-68
2023/08/21 03:07:26;;;;;;;29.70;16.52;;;;;;;-146.25;100.00;52165.44;2088562;28;20168;-68
2023/08/21 03:08:28;;;;;;;23.50;15.00;;;;;;;-146.25;100.00;52133.00;2088942;28;20037;-68
2023/08/21 03:09:30;;;;;;;24.48;13.63;;;;;;;-146.25;100.00;52191.81;2089122;28;20872;-69
2023/08/21 03:10:36;;;;;;;26.10;15.15;;;;;;;-146.25;100.00;52169.50;2096253;28;32993;-68
2023/08/21 03:11:40;;;;;;;25.55;15.15;;;;;;;-146.25;100.00;52151.25;2088698;28;20958;-68
2023/08/21 03:12:43;;;;;;;20.65;13.70;;;;;;;-146.25;100.00;52116.78;2089583;28;20977;-68
2023/08/21 03:13:44;;;;;;;21.50;13.25;;;;;;;-146.25;100.00;52133.00;2088020;28;28429;-68
2023/08/21 03:14:49;;;;;;;23.60;13.38;;;;;;;-146.25;100.00;52167.47;2080697;28;20046;-68
2023/08/21 03:15:50;;;;;;;19.77;12.95;;;;;;;-146.25;100.00;52161.38;2088101;28;20895;-69
2023/08/21 03:16:52;;;;;;;23.15;13.25;;;;;;;-146.25;100.00;52120.84;2088856;28;20042;-68
2023/08/21 03:17:55;;;;;;;22.08;15.25;;;;;;;-146.25;100.00;52181.66;2096385;28;27067;-68
2023/08/21 03:19:00;;;;;;;22.25;13.20;;;;;;;-146.25;100.00;52153.28;2088615;28;20093;-68
2023/08/21 03:20:05;;;;;;;23.73;13.85;;;;;;;-146.25;100.00;52155.31;2088927;28;20049;-67
2023/08/21 03:21:06;;;;;;;21.90;13.00;;;;;;;-146.25;100.00;52128.94;2097162;28;20083;-68
2023/08/21 03:22:08;;;;;;;20.80;13.65;;;;;;;-146.25;100.00;52183.69;2096383;28;20049;-67
2023/08/21 03:23:10;;;;;;;22.30;12.77;;;;;;;-146.25;100.00;52155.31;2088852;28;20053;-68
2023/08/21 03:24:12;;;;;;;26.52;14.35;;;;;;;-146.25;100.00;52183.69;2088529;28;20914;-67
2023/08/21 03:25:17;;;;;;;24.77;14.25;;;;;;;-146.25;100.00;52145.16;2087769;28;20156;-68
2023/08/21 03:26:19;;;;;;;23.05;14.18;;;;;;;-146.25;100.00;52165.44;2088680;28;20122;-68
2023/08/21 03:27:22;;;;;;;22.00;14.07;;;;;;;-146.25;100.00;52181.66;2088801;28;29387;-69
2023/08/21 03:28:23;;;;;;;28.75;15.15;;;;;;;-146.25;100.00;52187.75;2071668;28;28665;-66
2023/08/21 03:29:25;;;;;;;22.27;13.27;;;;;;;-146.25;100.00;52133.00;2080963;28;20826;-68
2023/08/21 03:30:27;;;;;;;20.42;13.25;;;;;;;-146.25;100.00;52169.50;2089030;28;20085;-69
2023/08/21 03:31:32;;;;;;;22.52;12.18;;;;;;;-146.25;100.00;52139.09;2088263;28;20246;-68
2023/08/21 03:32:34;;;;;;;20.83;12.57;;;;;;;-146.25;100.00;52161.38;2088380;28;20042;-68
2023/08/21 03:33:36;;;;;;;22.63;14.32;;;;;;;-146.25;100.00;52169.50;2081246;28;20794;-68
2023/08/21 03:34:40;;;;;;;24.50;14.20;;;;;;;-146.25;100.00;52173.56;2088190;28;20933;-69
2023/08/21 03:35:44;;;;;;;24.42;14.73;;;;;;;-146.25;100.00;52149.22;2087806;28;26849;-68
2023/08/21 03:36:46;;;;;;;28.10;14.82;;;;;;;-146.25;100.00;52183.69;2088913;28;20145;-68
2023/08/21 03:37:49;;;;;;;21.73;13.70;;;;;;;-146.25;100.00;52147.19;2088549;28;20049;-68
2023/08/21 03:38:51;;;;;;;22.65;13.50;;;;;;;-146.25;100.00;52163.41;2088507;28;20037;-68
2023/08/21 03:39:53;;;;;;;27.00;15.57;;;;;;;-146.25;100.00;52120.84;2088229;28;20097;-67
2023/08/21 03:40:55;;;;;;;27.15;14.95;;;;;;;-146.25;100.00;52177.59;2088409;28;20147;-68
2023/08/21 03:41:58;;;;;;;24.02;14.60;;;;;;;-146.25;100.00;52135.03;2088488;28;20868;-67
2023/08/21 03:42:59;;;;;;;22.30;13.23;;;;;;;-146.25;100.00;52195.84;2079977;28;20122;-68
2023/08/21 03:44:02;;;;;;;18.05;12.02;;;;;;;-146.25;100.00;52179.63;2088688;28;20037;-68
2023/08/21 03:45:08;;;;;;;18.67;11.15;;;;;;;-146.25;100.00;52135.03;2087734;28;33042;-67
2023/08/21 03:46:09;;;;;;;23.25;13.02;;;;;;;-146.25;100.00;52175.56;2088024;28;27722;-68
2023/08/21 03:47:14;;;;;;;20.30;12.32;;;;;;;-146.25;100.00;52153.28;2088292;28;20041;-68
2023/08/21 03:48:26;;;;;;;27.95;14.98;;;;;;;-146.25;100.00;52137.06;2090399;28;20045;-68
2023/08/21 03:49:30;;;;;;;20.52;12.13;;;;;;;-146.25;100.00;52149.22;2088468;28;20037;-68
2023/08/21 03:50:32;;;;;;;20.45;12.30;;;;;;;-146.25;100.00;52128.94;2080626;28;20757;-68
2023/08/21 03:51:34;;;;;;;25.33;13.18;;;;;;;-146.25;100.00;52157.34;2087929;28;20902;-69
2023/08/21 03:52:35;;;;;;;21.27;12.50;;;;;;;-146.25;100.00;52183.69;2080555;28;20906;-68
2023/08/21 03:53:37;;;;;;;19.63;12.02;;;;;;;-146.25;100.00;52159.34;2088049;28;29792;-69
2023/08/21 03:54:40;;;;;;;20.10;12.68;;;;;;;-146.25;100.00;52189.78;2088352;28;20080;-68
2023/08/21 03:55:43;;;;;;;23.85;14.20;;;;;;;-146.25;100.00;52181.66;2088052;28;20112;-69
2023/08/21 03:56:45;;;;;;;20.77;13.13;;;;;;;-146.25;100.00;52165.44;2088801;28;20044;-68
2023/08/21 03:57:48;;;;;;;21.50;13.18;;;;;;;-146.25;100.00;52169.50;2091455;28;20139;-69
2023/08/21 03:58:50;;;;;;;19.73;12.27;;;;;;;-146.25;100.00;52181.66;2087364;28;35143;-68
2023/08/21 03:59:52;;;;;;;18.08;12.32;;;;;;;-146.25;100.00;52167.47;2087728;28;26460;-69
2023/08/21 04:00:54;;;;;;;19.08;11.77;;;;;;;-146.25;100.00;52161.38;2096429;28;28942;-68
2023/08/21 04:01:55;;;;;;;26.45;14.45;;;;;;;-146.25;100.00;52149.22;2088254;28;20692;-68
2023/08/21 04:02:59;;;;;;;20.75;12.60;;;;;;;-146.25;100.00;52157.34;2088499;28;22327;-69
2023/08/21 04:04:02;;;;;;;19.88;12.73;;;;;;;-146.25;100.00;52197.88;2088759;28;20049;-68
2023/08/21 04:05:05;;;;;;;20.85;11.95;;;;;;;-146.25;100.00;52181.66;2088155;28;20048;-69
2023/08/21 04:06:06;;;;;;;22.52;13.45;;;;;;;-146.25;100.00;52181.66;2079949;28;20879;-68
2023/08/21 04:07:10;;;;;;;23.25;13.85;;;;;;;-146.25;100.00;52165.44;2088373;28;24570;-69
2023/08/21 04:08:13;;;;;;;22.38;12.98;;;;;;;-146.25;100.00;52201.94;2088786;28;20155;-69
2023/08/21 04:09:17;;;;;;;19.95;11.43;;;;;;;-146.25;100.00;52193.81;2088490;28;20052;-68
2023/08/21 04:10:19;;;;;;;19.83;11.10;;;;;;;-146.25;100.00;52165.44;2088143;28;20723;-68
2023/08/21 04:11:21;;;;;;;21.17;13.60;;;;;;;-146.25;100.00;52189.78;2089155;28;28105;-69
2023/08/21 04:12:22;;;;;;;23.30;13.45;;;;;;;-146.25;100.00;52159.34;2096041;28;28797;-68
2023/08/21 04:13:25;;;;;;;22.02;13.30;;;;;;;-146.25;100.00;52175.56;2088353;28;20108;-69
2023/08/21 04:14:26;;;;;;;25.33;14.10;;;;;;;-146.25;100.00;52173.56;2080433;28;20157;-67
2023/08/21 04:15:29;;;;;;;19.00;12.52;;;;;;;-146.25;100.00;52167.47;2080099;28;20088;-68
2023/08/21 04:16:34;;;;;;;21.60;12.68;;;;;;;-146.25;100.00;52171.53;2079814;28;23954;-69
2023/08/21 04:17:35;;;;;;;16.70;12.05;;;;;;;-146.25;100.00;52169.50;2088417;28;24746;-68
2023/08/21 04:18:39;;;;;;;21.85;13.43;;;;;;;-146.25;100.00;52155.31;2088028;28;20934;-67
2023/08/21 04:19:43;;;;;;;16.60;11.52;;;;;;;-146.25;100.00;52189.78;2080400;28;20165;-68
2023/08/21 04:20:49;;;;;;;17.63;10.63;;;;;;;-146.25;100.00;52171.53;2087962;28;20038;-68
2023/08/21 04:21:50;;;;;;;21.17;13.70;;;;;;;-146.25;100.00;52171.53;2096838;28;20148;-68
2023/08/21 04:22:53;;;;;;;20.42;12.82;;;;;;;-146.25;100.00;52181.66;2087914;28;20152;-68
2023/08/21 04:23:54;;;;;;;18.25;11.85;;;;;;;-146.25;100.00;52187.75;2088043;28;20134;-68
2023/08/21 04:25:00;;;;;;;19.00;12.55;;;;;;;-146.25;100.00;52177.59;2096142;28;26128;-68
2023/08/21 04:26:03;;;;;;;16.27;10.82;;;;;;;-146.25;100.00;52165.44;2088997;28;28552;-68
2023/08/21 04:27:07;;;;;;;18.13;11.02;;;;;;;-146.25;100.00;52135.03;2095972;28;30613;-69
2023/08/21 04:28:09;;;;;;;14.25;10.63;;;;;;;-146.25;100.00;52169.50;2095434;28;29798;-68
2023/08/21 04:29:14;;;;;;;19.65;12.18;;;;;;;-146.25;100.00;52181.66;2096581;28;20044;-68
2023/08/21 04:30:16;;;;;;;19.50;10.68;;;;;;;-146.25;100.00;52187.75;2088497;28;20040;-68
2023/08/21 04:31:19;;;;;;;14.70;10.48;;;;;;;-146.25;100.00;52193.81;2080211;28;20084;-68
2023/08/21 04:32:23;;;;;;;20.00;11.55;;;;;;;-146.25;100.00;52193.81;2080156;28;20042;-67
2023/08/21 04:33:33;;;;;;;15.60;10.50;;;;;;;-146.25;100.00;52173.56;2079622;28;20127;-68
2023/08/21 04:34:35;;;;;;;14.52;10.18;;;;;;;-146.25;100.00;52175.56;2073380;28;20867;-68
2023/08/21 04:35:38;;;;;;;19.48;11.73;;;;;;;-146.25;100.00;52169.50;2064385;28;20063;-68
2023/08/21 04:36:40;;;;;;;18.10;12.18;;;;;;;-146.25;100.00;52193.81;2064337;28;20835;-68
2023/08/21 04:37:48;;;;;;;23.90;13.98;;;;;;;-146.25;100.00;52163.41;2072109;28;20173;-68
2023/08/21 04:38:54;;;;;;;14.90;10.00;;;;;;;-146.25;100.00;52171.53;2088289;28;20088;-69
2023/08/21 04:39:56;;;;;;;15.75;11.40;;;;;;;-146.25;100.00;52177.59;2080495;28;20512;-68
2023/08/21 04:41:07;;;;;;;15.30;11.50;;;;;;;-146.25;100.00;52212.06;2088389;28;20141;-68
2023/08/21 04:42:14;;;;;;;15.82;10.77;;;;;;;-146.25;100.00;52179.63;2087775;28;20076;-67